Terminal Aerodrome Forecast
Issued by NWS

Home | Current Version | Previous Version | Text Only | Print | Product List | Glossary On
Versions: 1 2 3 4 5 6 7 8 9 10 11 12 13 14 15
532
FTUS42 KTAE 041731
TAFABY
TAF
KABY 041731Z 0418/0518 30011KT P6SM FEW050
     FM050000 27004KT P6SM SKC
     FM051500 30015G24KT P6SM SKC=

USA.gov is the U.S. government's official web portal to all federal, state and local government web resources and services.